sensor_id;sensor_type;location;lat;lon;timestamp;P1;durP1;ratioP1;P2;durP2;ratioP2
17631;SDS011;8934;51.194;17.150;2023-09-18T00:00:08;11.50;;;9.27;;
17631;SDS011;8934;51.194;17.150;2023-09-18T00:02:58;11.27;;;9.90;;
17631;SDS011;8934;51.194;17.150;2023-09-18T00:05:48;12.20;;;10.57;;
17631;SDS011;8934;51.194;17.150;2023-09-18T00:08:37;10.38;;;9.27;;
17631;SDS011;8934;51.194;17.150;2023-09-18T00:11:26;13.63;;;12.05;;
17631;SDS011;8934;51.194;17.150;2023-09-18T00:14:14;13.40;;;10.73;;
17631;SDS011;8934;51.194;17.150;2023-09-18T00:17:03;12.20;;;10.90;;
17631;SDS011;8934;51.194;17.150;2023-09-18T00:19:52;11.20;;;9.82;;
17631;SDS011;8934;51.194;17.150;2023-09-18T00:22:40;14.93;;;12.40;;
17631;SDS011;8934;51.194;17.150;2023-09-18T00:25:28;14.15;;;12.65;;
17631;SDS011;8934;51.194;17.150;2023-09-18T00:28:16;13.93;;;11.07;;
17631;SDS011;8934;51.194;17.150;2023-09-18T00:31:04;13.18;;;10.63;;
17631;SDS011;8934;51.194;17.150;2023-09-18T00:33:54;13.70;;;12.13;;
17631;SDS011;8934;51.194;17.150;2023-09-18T00:36:42;12.93;;;10.77;;
17631;SDS011;8934;51.194;17.150;2023-09-18T00:39:30;12.32;;;10.13;;
17631;SDS011;8934;51.194;17.150;2023-09-18T00:42:17;11.35;;;9.93;;
17631;SDS011;8934;51.194;17.150;2023-09-18T00:45:08;14.15;;;12.02;;
17631;SDS011;8934;51.194;17.150;2023-09-18T00:47:56;16.27;;;12.80;;
17631;SDS011;8934;51.194;17.150;2023-09-18T00:50:45;15.63;;;13.63;;
17631;SDS011;8934;51.194;17.150;2023-09-18T00:53:34;14.98;;;12.80;;
17631;SDS011;8934;51.194;17.150;2023-09-18T00:56:22;15.48;;;13.88;;
17631;SDS011;8934;51.194;17.150;2023-09-18T00:59:10;16.70;;;13.60;;
17631;SDS011;8934;51.194;17.150;2023-09-18T01:01:59;14.77;;;13.20;;
17631;SDS011;8934;51.194;17.150;2023-09-18T01:04:47;14.88;;;12.77;;
17631;SDS011;8934;51.194;17.150;2023-09-18T01:07:37;15.48;;;13.05;;
17631;SDS011;8934;51.194;17.150;2023-09-18T01:10:27;14.95;;;12.95;;
17631;SDS011;8934;51.194;17.150;2023-09-18T01:13:18;14.57;;;12.63;;
17631;SDS011;8934;51.194;17.150;2023-09-18T01:16:10;14.30;;;12.52;;
17631;SDS011;8934;51.194;17.150;2023-09-18T01:19:01;16.77;;;13.55;;
17631;SDS011;8934;51.194;17.150;2023-09-18T01:21:49;15.05;;;12.80;;
17631;SDS011;8934;51.194;17.150;2023-09-18T01:24:38;13.77;;;12.38;;
17631;SDS011;8934;51.194;17.150;2023-09-18T01:27:27;14.02;;;11.80;;
17631;SDS011;8934;51.194;17.150;2023-09-18T01:30:14;14.95;;;11.93;;
17631;SDS011;8934;51.194;17.150;2023-09-18T01:33:03;16.58;;;13.68;;
17631;SDS011;8934;51.194;17.150;2023-09-18T01:35:53;17.48;;;14.50;;
17631;SDS011;8934;51.194;17.150;2023-09-18T01:38:41;18.63;;;15.82;;
17631;SDS011;8934;51.194;17.150;2023-09-18T01:41:32;17.17;;;14.90;;
17631;SDS011;8934;51.194;17.150;2023-09-18T01:44:20;19.08;;;16.08;;
17631;SDS011;8934;51.194;17.150;2023-09-18T01:47:09;20.25;;;16.95;;
17631;SDS011;8934;51.194;17.150;2023-09-18T01:49:59;16.80;;;15.02;;
17631;SDS011;8934;51.194;17.150;2023-09-18T01:52:51;19.90;;;16.63;;
17631;SDS011;8934;51.194;17.150;2023-09-18T01:55:39;20.10;;;17.40;;
17631;SDS011;8934;51.194;17.150;2023-09-18T01:58:28;17.35;;;15.55;;
17631;SDS011;8934;51.194;17.150;2023-09-18T02:01:17;18.90;;;16.35;;
17631;SDS011;8934;51.194;17.150;2023-09-18T02:04:05;21.17;;;17.10;;
17631;SDS011;8934;51.194;17.150;2023-09-18T02:07:14;20.27;;;17.88;;
17631;SDS011;8934;51.194;17.150;2023-09-18T02:10:02;24.63;;;19.33;;
17631;SDS011;8934;51.194;17.150;2023-09-18T02:12:51;22.30;;;16.75;;
17631;SDS011;8934;51.194;17.150;2023-09-18T02:15:40;21.08;;;18.35;;
17631;SDS011;8934;51.194;17.150;2023-09-18T02:18:28;22.23;;;19.83;;
17631;SDS011;8934;51.194;17.150;2023-09-18T02:21:18;23.85;;;19.63;;
17631;SDS011;8934;51.194;17.150;2023-09-18T02:24:06;22.63;;;19.08;;
17631;SDS011;8934;51.194;17.150;2023-09-18T02:26:54;22.38;;;18.80;;
17631;SDS011;8934;51.194;17.150;2023-09-18T02:29:42;19.67;;;17.58;;
17631;SDS011;8934;51.194;17.150;2023-09-18T02:32:32;19.85;;;16.88;;
17631;SDS011;8934;51.194;17.150;2023-09-18T02:35:21;20.02;;;17.55;;
17631;SDS011;8934;51.194;17.150;2023-09-18T02:38:09;22.20;;;17.60;;
17631;SDS011;8934;51.194;17.150;2023-09-18T02:40:57;21.75;;;17.45;;
17631;SDS011;8934;51.194;17.150;2023-09-18T02:43:45;19.90;;;17.30;;
17631;SDS011;8934;51.194;17.150;2023-09-18T02:46:32;19.67;;;17.25;;
17631;SDS011;8934;51.194;17.150;2023-09-18T02:49:22;18.67;;;16.67;;
17631;SDS011;8934;51.194;17.150;2023-09-18T02:52:10;18.95;;;16.15;;
17631;SDS011;8934;51.194;17.150;2023-09-18T02:54:57;19.88;;;17.10;;
17631;SDS011;8934;51.194;17.150;2023-09-18T02:57:46;18.60;;;16.60;;
17631;SDS011;8934;51.194;17.150;2023-09-18T03:00:33;20.20;;;17.10;;
17631;SDS011;8934;51.194;17.150;2023-09-18T03:03:29;20.67;;;17.85;;
17631;SDS011;8934;51.194;17.150;2023-09-18T03:06:19;19.75;;;17.10;;
17631;SDS011;8934;51.194;17.150;2023-09-18T03:09:07;20.15;;;17.27;;
17631;SDS011;8934;51.194;17.150;2023-09-18T03:11:56;23.20;;;18.17;;
17631;SDS011;8934;51.194;17.150;2023-09-18T03:14:44;20.83;;;17.67;;
17631;SDS011;8934;51.194;17.150;2023-09-18T03:17:32;21.63;;;18.48;;
17631;SDS011;8934;51.194;17.150;2023-09-18T03:20:22;19.42;;;16.58;;
17631;SDS011;8934;51.194;17.150;2023-09-18T03:23:11;24.85;;;20.27;;
17631;SDS011;8934;51.194;17.150;2023-09-18T03:26:00;20.42;;;17.63;;
17631;SDS011;8934;51.194;17.150;2023-09-18T03:28:48;18.42;;;16.23;;
17631;SDS011;8934;51.194;17.150;2023-09-18T03:31:37;21.60;;;16.73;;
17631;SDS011;8934;51.194;17.150;2023-09-18T03:34:25;21.58;;;17.88;;
17631;SDS011;8934;51.194;17.150;2023-09-18T03:37:13;19.60;;;16.10;;
17631;SDS011;8934;51.194;17.150;2023-09-18T03:40:03;19.10;;;16.70;;
17631;SDS011;8934;51.194;17.150;2023-09-18T03:42:51;21.63;;;17.42;;
17631;SDS011;8934;51.194;17.150;2023-09-18T03:45:39;18.77;;;16.77;;
17631;SDS011;8934;51.194;17.150;2023-09-18T03:48:28;21.20;;;17.55;;
17631;SDS011;8934;51.194;17.150;2023-09-18T03:51:22;21.65;;;18.38;;
17631;SDS011;8934;51.194;17.150;2023-09-18T03:54:10;21.45;;;18.15;;
17631;SDS011;8934;51.194;17.150;2023-09-18T03:56:59;22.02;;;17.80;;
17631;SDS011;8934;51.194;17.150;2023-09-18T03:59:47;19.25;;;16.90;;
17631;SDS011;8934;51.194;17.150;2023-09-18T04:02:34;22.27;;;18.55;;
17631;SDS011;8934;51.194;17.150;2023-09-18T04:05:22;19.10;;;17.00;;
17631;SDS011;8934;51.194;17.150;2023-09-18T04:08:11;23.10;;;19.48;;
17631;SDS011;8934;51.194;17.150;2023-09-18T04:10:59;23.92;;;19.13;;
17631;SDS011;8934;51.194;17.150;2023-09-18T04:13:48;27.02;;;20.23;;
17631;SDS011;8934;51.194;17.150;2023-09-18T04:16:36;29.48;;;22.80;;
17631;SDS011;8934;51.194;17.150;2023-09-18T04:19:27;24.92;;;20.45;;
17631;SDS011;8934;51.194;17.150;2023-09-18T04:22:16;30.33;;;22.98;;
17631;SDS011;8934;51.194;17.150;2023-09-18T04:25:04;28.17;;;23.10;;
17631;SDS011;8934;51.194;17.150;2023-09-18T04:27:52;28.70;;;24.05;;
17631;SDS011;8934;51.194;17.150;2023-09-18T04:30:41;36.90;;;28.33;;
17631;SDS011;8934;51.194;17.150;2023-09-18T04:33:30;34.03;;;26.73;;
17631;SDS011;8934;51.194;17.150;2023-09-18T04:36:18;29.50;;;23.45;;
17631;SDS011;8934;51.194;17.150;2023-09-18T04:39:06;31.23;;;24.02;;
17631;SDS011;8934;51.194;17.150;2023-09-18T04:41:55;32.15;;;24.52;;
17631;SDS011;8934;51.194;17.150;2023-09-18T04:44:43;32.42;;;25.48;;
17631;SDS011;8934;51.194;17.150;2023-09-18T04:47:33;29.92;;;25.10;;
17631;SDS011;8934;51.194;17.150;2023-09-18T04:50:22;32.63;;;24.33;;
17631;SDS011;8934;51.194;17.150;2023-09-18T04:53:12;25.77;;;21.95;;
17631;SDS011;8934;51.194;17.150;2023-09-18T04:56:00;32.70;;;24.90;;
17631;SDS011;8934;51.194;17.150;2023-09-18T04:58:49;26.50;;;23.58;;
17631;SDS011;8934;51.194;17.150;2023-09-18T05:01:38;29.63;;;24.15;;
17631;SDS011;8934;51.194;17.150;2023-09-18T05:04:28;25.83;;;22.13;;
17631;SDS011;8934;51.194;17.150;2023-09-18T05:07:16;31.02;;;25.80;;
17631;SDS011;8934;51.194;17.150;2023-09-18T05:10:04;33.00;;;27.05;;
17631;SDS011;8934;51.194;17.150;2023-09-18T05:12:52;35.45;;;27.23;;
17631;SDS011;8934;51.194;17.150;2023-09-18T05:15:45;33.45;;;26.98;;
17631;SDS011;8934;51.194;17.150;2023-09-18T05:18:33;35.60;;;27.30;;
17631;SDS011;8934;51.194;17.150;2023-09-18T05:21:22;34.75;;;28.10;;
17631;SDS011;8934;51.194;17.150;2023-09-18T05:24:12;37.35;;;29.67;;
17631;SDS011;8934;51.194;17.150;2023-09-18T05:27:00;40.08;;;30.55;;
17631;SDS011;8934;51.194;17.150;2023-09-18T05:29:48;32.75;;;25.48;;
17631;SDS011;8934;51.194;17.150;2023-09-18T05:32:36;33.70;;;27.20;;
17631;SDS011;8934;51.194;17.150;2023-09-18T05:35:24;35.25;;;26.90;;
17631;SDS011;8934;51.194;17.150;2023-09-18T05:38:13;32.10;;;27.00;;
17631;SDS011;8934;51.194;17.150;2023-09-18T05:41:03;33.33;;;26.48;;
17631;SDS011;8934;51.194;17.150;2023-09-18T05:43:52;33.15;;;26.05;;
17631;SDS011;8934;51.194;17.150;2023-09-18T05:46:40;37.28;;;26.65;;
17631;SDS011;8934;51.194;17.150;2023-09-18T05:49:28;34.10;;;25.73;;
17631;SDS011;8934;51.194;17.150;2023-09-18T05:52:15;31.30;;;25.98;;
17631;SDS011;8934;51.194;17.150;2023-09-18T05:55:05;35.60;;;27.45;;
17631;SDS011;8934;51.194;17.150;2023-09-18T05:57:53;37.47;;;28.85;;
17631;SDS011;8934;51.194;17.150;2023-09-18T06:00:41;36.33;;;27.98;;
17631;SDS011;8934;51.194;17.150;2023-09-18T06:03:29;37.83;;;28.60;;
17631;SDS011;8934;51.194;17.150;2023-09-18T06:06:21;33.15;;;27.33;;
17631;SDS011;8934;51.194;17.150;2023-09-18T06:09:10;34.30;;;27.80;;
17631;SDS011;8934;51.194;17.150;2023-09-18T06:12:01;38.58;;;28.08;;
17631;SDS011;8934;51.194;17.150;2023-09-18T06:14:50;33.80;;;28.65;;
17631;SDS011;8934;51.194;17.150;2023-09-18T06:17:38;34.08;;;26.95;;
17631;SDS011;8934;51.194;17.150;2023-09-18T06:20:27;32.88;;;26.83;;
17631;SDS011;8934;51.194;17.150;2023-09-18T06:23:15;35.58;;;27.05;;
17631;SDS011;8934;51.194;17.150;2023-09-18T06:26:02;35.35;;;27.05;;
17631;SDS011;8934;51.194;17.150;2023-09-18T06:28:52;32.72;;;26.95;;
17631;SDS011;8934;51.194;17.150;2023-09-18T06:31:42;32.85;;;26.27;;
17631;SDS011;8934;51.194;17.150;2023-09-18T06:34:30;30.75;;;26.60;;
17631;SDS011;8934;51.194;17.150;2023-09-18T06:37:18;30.40;;;25.95;;
17631;SDS011;8934;51.194;17.150;2023-09-18T06:40:06;30.77;;;25.42;;
17631;SDS011;8934;51.194;17.150;2023-09-18T06:42:58;30.75;;;25.65;;
17631;SDS011;8934;51.194;17.150;2023-09-18T06:45:48;32.47;;;26.27;;
17631;SDS011;8934;51.194;17.150;2023-09-18T06:48:36;30.58;;;25.10;;
17631;SDS011;8934;51.194;17.150;2023-09-18T06:51:24;27.88;;;22.98;;
17631;SDS011;8934;51.194;17.150;2023-09-18T06:54:27;26.77;;;22.63;;
17631;SDS011;8934;51.194;17.150;2023-09-18T06:57:15;24.20;;;21.23;;
17631;SDS011;8934;51.194;17.150;2023-09-18T07:00:03;26.08;;;21.00;;
17631;SDS011;8934;51.194;17.150;2023-09-18T07:02:53;22.80;;;20.10;;
17631;SDS011;8934;51.194;17.150;2023-09-18T07:05:41;23.08;;;19.17;;
17631;SDS011;8934;51.194;17.150;2023-09-18T07:08:30;19.50;;;17.33;;
17631;SDS011;8934;51.194;17.150;2023-09-18T07:11:18;23.35;;;17.85;;
17631;SDS011;8934;51.194;17.150;2023-09-18T07:14:09;19.08;;;17.00;;
17631;SDS011;8934;51.194;17.150;2023-09-18T07:16:58;19.13;;;15.57;;
17631;SDS011;8934;51.194;17.150;2023-09-18T07:19:48;19.35;;;16.38;;
17631;SDS011;8934;51.194;17.150;2023-09-18T07:22:36;18.20;;;14.75;;
17631;SDS011;8934;51.194;17.150;2023-09-18T07:25:24;16.27;;;14.57;;
17631;SDS011;8934;51.194;17.150;2023-09-18T07:28:11;17.23;;;15.05;;
17631;SDS011;8934;51.194;17.150;2023-09-18T07:31:04;17.15;;;14.35;;
17631;SDS011;8934;51.194;17.150;2023-09-18T07:33:53;15.07;;;13.48;;
17631;SDS011;8934;51.194;17.150;2023-09-18T07:36:42;14.70;;;12.68;;
17631;SDS011;8934;51.194;17.150;2023-09-18T07:39:30;15.13;;;13.57;;
17631;SDS011;8934;51.194;17.150;2023-09-18T07:42:18;13.55;;;12.15;;
17631;SDS011;8934;51.194;17.150;2023-09-18T07:45:07;14.75;;;13.25;;
17631;SDS011;8934;51.194;17.150;2023-09-18T07:47:55;13.93;;;12.55;;
17631;SDS011;8934;51.194;17.150;2023-09-18T07:50:43;14.57;;;13.15;;
17631;SDS011;8934;51.194;17.150;2023-09-18T07:53:32;16.40;;;13.40;;
17631;SDS011;8934;51.194;17.150;2023-09-18T07:56:20;15.80;;;13.55;;
17631;SDS011;8934;51.194;17.150;2023-09-18T07:59:08;14.80;;;13.23;;
17631;SDS011;8934;51.194;17.150;2023-09-18T08:01:56;16.42;;;12.73;;
17631;SDS011;8934;51.194;17.150;2023-09-18T08:04:44;15.48;;;13.43;;
17631;SDS011;8934;51.194;17.150;2023-09-18T08:07:32;16.38;;;12.57;;
17631;SDS011;8934;51.194;17.150;2023-09-18T08:10:23;13.88;;;12.43;;
17631;SDS011;8934;51.194;17.150;2023-09-18T08:13:11;12.77;;;11.48;;
17631;SDS011;8934;51.194;17.150;2023-09-18T08:15:59;15.20;;;12.68;;
17631;SDS011;8934;51.194;17.150;2023-09-18T08:18:47;13.57;;;12.13;;
17631;SDS011;8934;51.194;17.150;2023-09-18T08:21:35;15.27;;;12.30;;
17631;SDS011;8934;51.194;17.150;2023-09-18T08:24:22;15.77;;;12.38;;
17631;SDS011;8934;51.194;17.150;2023-09-18T08:27:13;12.50;;;11.32;;
17631;SDS011;8934;51.194;17.150;2023-09-18T08:30:02;13.07;;;11.60;;
17631;SDS011;8934;51.194;17.150;2023-09-18T08:32:50;13.52;;;11.52;;
17631;SDS011;8934;51.194;17.150;2023-09-18T08:35:38;12.70;;;11.30;;
17631;SDS011;8934;51.194;17.150;2023-09-18T08:38:26;14.93;;;11.88;;
17631;SDS011;8934;51.194;17.150;2023-09-18T08:41:14;14.82;;;12.93;;
17631;SDS011;8934;51.194;17.150;2023-09-18T08:44:08;15.98;;;11.73;;
17631;SDS011;8934;51.194;17.150;2023-09-18T08:46:56;16.33;;;11.00;;
17631;SDS011;8934;51.194;17.150;2023-09-18T08:49:44;16.98;;;11.98;;
17631;SDS011;8934;51.194;17.150;2023-09-18T08:52:33;13.57;;;12.25;;
17631;SDS011;8934;51.194;17.150;2023-09-18T08:55:22;17.08;;;12.30;;
17631;SDS011;8934;51.194;17.150;2023-09-18T08:58:11;15.70;;;12.23;;
17631;SDS011;8934;51.194;17.150;2023-09-18T09:01:01;13.65;;;11.52;;
17631;SDS011;8934;51.194;17.150;2023-09-18T09:03:51;15.25;;;11.80;;
17631;SDS011;8934;51.194;17.150;2023-09-18T09:06:39;12.88;;;11.57;;
17631;SDS011;8934;51.194;17.150;2023-09-18T09:09:27;13.43;;;11.15;;
17631;SDS011;8934;51.194;17.150;2023-09-18T09:12:17;14.90;;;11.70;;
17631;SDS011;8934;51.194;17.150;2023-09-18T09:15:27;13.43;;;12.02;;
17631;SDS011;8934;51.194;17.150;2023-09-18T09:18:17;12.73;;;11.13;;
17631;SDS011;8934;51.194;17.150;2023-09-18T09:21:05;13.15;;;11.75;;
17631;SDS011;8934;51.194;17.150;2023-09-18T09:23:53;13.73;;;11.82;;
17631;SDS011;8934;51.194;17.150;2023-09-18T09:26:42;14.65;;;13.10;;
17631;SDS011;8934;51.194;17.150;2023-09-18T09:29:30;13.15;;;11.60;;
17631;SDS011;8934;51.194;17.150;2023-09-18T09:32:18;15.13;;;12.48;;
17631;SDS011;8934;51.194;17.150;2023-09-18T09:35:07;14.73;;;11.55;;
17631;SDS011;8934;51.194;17.150;2023-09-18T09:37:56;14.23;;;11.98;;
17631;SDS011;8934;51.194;17.150;2023-09-18T09:40:46;13.50;;;11.57;;
17631;SDS011;8934;51.194;17.150;2023-09-18T09:43:34;12.18;;;10.93;;
17631;SDS011;8934;51.194;17.150;2023-09-18T09:46:23;14.00;;;11.07;;
17631;SDS011;8934;51.194;17.150;2023-09-18T09:49:12;18.23;;;11.68;;
17631;SDS011;8934;51.194;17.150;2023-09-18T09:52:03;12.20;;;10.95;;
17631;SDS011;8934;51.194;17.150;2023-09-18T09:54:51;11.57;;;9.95;;
17631;SDS011;8934;51.194;17.150;2023-09-18T09:57:46;14.57;;;11.63;;
17631;SDS011;8934;51.194;17.150;2023-09-18T10:00:36;12.60;;;10.73;;
17631;SDS011;8934;51.194;17.150;2023-09-18T10:03:29;13.68;;;10.85;;
17631;SDS011;8934;51.194;17.150;2023-09-18T10:06:20;11.88;;;10.65;;
17631;SDS011;8934;51.194;17.150;2023-09-18T10:09:11;13.85;;;11.57;;
17631;SDS011;8934;51.194;17.150;2023-09-18T10:11:59;11.98;;;10.07;;
17631;SDS011;8934;51.194;17.150;2023-09-18T10:14:50;13.73;;;10.93;;
17631;SDS011;8934;51.194;17.150;2023-09-18T10:17:47;12.57;;;11.15;;
17631;SDS011;8934;51.194;17.150;2023-09-18T10:20:39;11.70;;;10.50;;
17631;SDS011;8934;51.194;17.150;2023-09-18T10:23:34;11.63;;;9.52;;
17631;SDS011;8934;51.194;17.150;2023-09-18T10:26:27;12.38;;;10.23;;
17631;SDS011;8934;51.194;17.150;2023-09-18T10:29:17;10.77;;;9.43;;
17631;SDS011;8934;51.194;17.150;2023-09-18T10:32:05;15.80;;;9.73;;
17631;SDS011;8934;51.194;17.150;2023-09-18T10:34:54;10.88;;;9.27;;
17631;SDS011;8934;51.194;17.150;2023-09-18T10:37:42;11.65;;;10.55;;
17631;SDS011;8934;51.194;17.150;2023-09-18T10:40:30;10.02;;;9.02;;
17631;SDS011;8934;51.194;17.150;2023-09-18T10:43:20;11.07;;;9.85;;
17631;SDS011;8934;51.194;17.150;2023-09-18T10:46:08;10.77;;;9.68;;
17631;SDS011;8934;51.194;17.150;2023-09-18T10:48:59;13.82;;;9.85;;
17631;SDS011;8934;51.194;17.150;2023-09-18T10:51:49;13.00;;;10.73;;
17631;SDS011;8934;51.194;17.150;2023-09-18T10:54:40;12.95;;;10.38;;
17631;SDS011;8934;51.194;17.150;2023-09-18T10:57:28;12.02;;;9.65;;
17631;SDS011;8934;51.194;17.150;2023-09-18T11:00:24;12.07;;;10.88;;
17631;SDS011;8934;51.194;17.150;2023-09-18T11:03:14;11.00;;;9.90;;
17631;SDS011;8934;51.194;17.150;2023-09-18T11:06:04;21.90;;;10.15;;
17631;SDS011;8934;51.194;17.150;2023-09-18T11:08:58;12.80;;;10.35;;
17631;SDS011;8934;51.194;17.150;2023-09-18T11:11:51;10.70;;;9.57;;
17631;SDS011;8934;51.194;17.150;2023-09-18T11:14:43;11.32;;;9.77;;
17631;SDS011;8934;51.194;17.150;2023-09-18T11:17:38;10.98;;;9.55;;
17631;SDS011;8934;51.194;17.150;2023-09-18T11:20:26;11.60;;;10.43;;
17631;SDS011;8934;51.194;17.150;2023-09-18T11:23:16;12.77;;;9.68;;
17631;SDS011;8934;51.194;17.150;2023-09-18T11:26:04;12.27;;;10.13;;
17631;SDS011;8934;51.194;17.150;2023-09-18T11:28:54;10.45;;;9.45;;
17631;SDS011;8934;51.194;17.150;2023-09-18T11:31:47;10.20;;;9.18;;
17631;SDS011;8934;51.194;17.150;2023-09-18T11:34:37;10.95;;;9.85;;
17631;SDS011;8934;51.194;17.150;2023-09-18T11:37:27;11.40;;;9.75;;
17631;SDS011;8934;51.194;17.150;2023-09-18T11:40:28;9.57;;;8.68;;
17631;SDS011;8934;51.194;17.150;2023-09-18T11:43:20;11.48;;;9.63;;
17631;SDS011;8934;51.194;17.150;2023-09-18T11:46:11;11.13;;;10.02;;
17631;SDS011;8934;51.194;17.150;2023-09-18T11:48:59;10.60;;;9.32;;
17631;SDS011;8934;51.194;17.150;2023-09-18T11:51:53;10.90;;;9.77;;
17631;SDS011;8934;51.194;17.150;2023-09-18T11:54:41;11.13;;;9.75;;
17631;SDS011;8934;51.194;17.150;2023-09-18T11:57:35;11.23;;;9.80;;
17631;SDS011;8934;51.194;17.150;2023-09-18T12:00:23;11.15;;;10.05;;
17631;SDS011;8934;51.194;17.150;2023-09-18T12:03:13;10.63;;;9.55;;
17631;SDS011;8934;51.194;17.150;2023-09-18T12:06:03;12.00;;;9.32;;
17631;SDS011;8934;51.194;17.150;2023-09-18T12:08:53;10.68;;;9.00;;
17631;SDS011;8934;51.194;17.150;2023-09-18T12:11:42;10.45;;;9.30;;
17631;SDS011;8934;51.194;17.150;2023-09-18T12:14:31;10.93;;;9.10;;
17631;SDS011;8934;51.194;17.150;2023-09-18T12:17:19;17.60;;;9.90;;
17631;SDS011;8934;51.194;17.150;2023-09-18T12:20:09;13.65;;;8.55;;
17631;SDS011;8934;51.194;17.150;2023-09-18T12:23:04;13.23;;;6.72;;
17631;SDS011;8934;51.194;17.150;2023-09-18T12:25:59;7.68;;;6.75;;
17631;SDS011;8934;51.194;17.150;2023-09-18T12:28:49;6.63;;;5.90;;
17631;SDS011;8934;51.194;17.150;2023-09-18T12:31:37;6.82;;;6.13;;
17631;SDS011;8934;51.194;17.150;2023-09-18T12:34:25;6.95;;;5.63;;
17631;SDS011;8934;51.194;17.150;2023-09-18T12:37:13;7.82;;;5.97;;
17631;SDS011;8934;51.194;17.150;2023-09-18T12:40:02;6.45;;;5.53;;
17631;SDS011;8934;51.194;17.150;2023-09-18T12:42:57;7.03;;;5.68;;
17631;SDS011;8934;51.194;17.150;2023-09-18T12:45:47;7.75;;;5.05;;
17631;SDS011;8934;51.194;17.150;2023-09-18T12:48:39;9.05;;;5.15;;
17631;SDS011;8934;51.194;17.150;2023-09-18T12:51:32;7.95;;;5.50;;
17631;SDS011;8934;51.194;17.150;2023-09-18T12:54:20;7.35;;;5.32;;
17631;SDS011;8934;51.194;17.150;2023-09-18T12:57:09;9.60;;;5.38;;
17631;SDS011;8934;51.194;17.150;2023-09-18T12:59:58;12.75;;;5.45;;
17631;SDS011;8934;51.194;17.150;2023-09-18T13:02:48;7.93;;;4.32;;
17631;SDS011;8934;51.194;17.150;2023-09-18T13:05:41;10.52;;;4.90;;
17631;SDS011;8934;51.194;17.150;2023-09-18T13:08:29;8.43;;;4.90;;
17631;SDS011;8934;51.194;17.150;2023-09-18T13:11:17;5.47;;;4.65;;
17631;SDS011;8934;51.194;17.150;2023-09-18T13:14:06;10.68;;;4.55;;
17631;SDS011;8934;51.194;17.150;2023-09-18T13:17:00;8.57;;;4.80;;
17631;SDS011;8934;51.194;17.150;2023-09-18T13:19:50;6.55;;;4.97;;
17631;SDS011;8934;51.194;17.150;2023-09-18T13:22:38;6.13;;;4.65;;
17631;SDS011;8934;51.194;17.150;2023-09-18T13:25:28;6.32;;;4.93;;
17631;SDS011;8934;51.194;17.150;2023-09-18T13:28:16;5.40;;;4.63;;
17631;SDS011;8934;51.194;17.150;2023-09-18T13:31:07;14.38;;;5.97;;
17631;SDS011;8934;51.194;17.150;2023-09-18T13:33:56;8.90;;;4.97;;
17631;SDS011;8934;51.194;17.150;2023-09-18T13:36:43;8.55;;;5.38;;
17631;SDS011;8934;51.194;17.150;2023-09-18T13:39:32;6.95;;;5.13;;
17631;SDS011;8934;51.194;17.150;2023-09-18T13:42:19;8.07;;;5.10;;
17631;SDS011;8934;51.194;17.150;2023-09-18T13:45:08;6.20;;;5.30;;
17631;SDS011;8934;51.194;17.150;2023-09-18T13:47:56;6.32;;;5.10;;
17631;SDS011;8934;51.194;17.150;2023-09-18T13:50:46;10.70;;;4.75;;
17631;SDS011;8934;51.194;17.150;2023-09-18T13:53:34;9.20;;;5.55;;
17631;SDS011;8934;51.194;17.150;2023-09-18T13:56:24;6.47;;;5.82;;
17631;SDS011;8934;51.194;17.150;2023-09-18T13:59:14;14.15;;;5.80;;
17631;SDS011;8934;51.194;17.150;2023-09-18T14:02:02;8.05;;;5.68;;
17631;SDS011;8934;51.194;17.150;2023-09-18T14:04:51;5.72;;;5.10;;
17631;SDS011;8934;51.194;17.150;2023-09-18T14:07:40;7.13;;;5.13;;
17631;SDS011;8934;51.194;17.150;2023-09-18T14:10:28;7.70;;;5.38;;
17631;SDS011;8934;51.194;17.150;2023-09-18T14:13:17;9.73;;;5.65;;
17631;SDS011;8934;51.194;17.150;2023-09-18T14:16:05;19.90;;;6.38;;
17631;SDS011;8934;51.194;17.150;2023-09-18T14:18:53;11.40;;;5.75;;
17631;SDS011;8934;51.194;17.150;2023-09-18T14:21:41;7.45;;;5.20;;
17631;SDS011;8934;51.194;17.150;2023-09-18T14:24:30;6.13;;;5.10;;
17631;SDS011;8934;51.194;17.150;2023-09-18T14:27:20;8.07;;;6.00;;
17631;SDS011;8934;51.194;17.150;2023-09-18T14:30:08;10.05;;;5.40;;
17631;SDS011;8934;51.194;17.150;2023-09-18T14:32:56;12.18;;;6.50;;
17631;SDS011;8934;51.194;17.150;2023-09-18T14:35:46;12.13;;;5.95;;
17631;SDS011;8934;51.194;17.150;2023-09-18T14:38:35;15.00;;;6.20;;
17631;SDS011;8934;51.194;17.150;2023-09-18T14:41:24;21.92;;;6.70;;
17631;SDS011;8934;51.194;17.150;2023-09-18T14:44:12;12.88;;;6.13;;
17631;SDS011;8934;51.194;17.150;2023-09-18T14:47:00;8.70;;;5.90;;
17631;SDS011;8934;51.194;17.150;2023-09-18T14:49:48;7.90;;;6.47;;
17631;SDS011;8934;51.194;17.150;2023-09-18T14:52:36;7.93;;;6.47;;
17631;SDS011;8934;51.194;17.150;2023-09-18T14:55:24;8.85;;;6.32;;
17631;SDS011;8934;51.194;17.150;2023-09-18T14:58:13;7.05;;;5.82;;
17631;SDS011;8934;51.194;17.150;2023-09-18T15:01:03;9.35;;;6.50;;
17631;SDS011;8934;51.194;17.150;2023-09-18T15:03:52;29.23;;;7.70;;
17631;SDS011;8934;51.194;17.150;2023-09-18T15:06:41;17.80;;;8.02;;
17631;SDS011;8934;51.194;17.150;2023-09-18T15:09:29;8.93;;;6.05;;
17631;SDS011;8934;51.194;17.150;2023-09-18T15:12:16;7.18;;;6.47;;
17631;SDS011;8934;51.194;17.150;2023-09-18T15:15:06;7.85;;;6.22;;
17631;SDS011;8934;51.194;17.150;2023-09-18T15:17:54;11.85;;;6.60;;
17631;SDS011;8934;51.194;17.150;2023-09-18T15:20:43;10.05;;;7.40;;
17631;SDS011;8934;51.194;17.150;2023-09-18T15:23:32;9.50;;;7.55;;
17631;SDS011;8934;51.194;17.150;2023-09-18T15:26:19;8.50;;;7.60;;
17631;SDS011;8934;51.194;17.150;2023-09-18T15:29:07;9.82;;;6.90;;
17631;SDS011;8934;51.194;17.150;2023-09-18T15:31:57;8.63;;;6.85;;
17631;SDS011;8934;51.194;17.150;2023-09-18T15:34:51;8.43;;;7.45;;
17631;SDS011;8934;51.194;17.150;2023-09-18T15:37:40;8.73;;;7.82;;
17631;SDS011;8934;51.194;17.150;2023-09-18T15:40:28;11.50;;;7.90;;
17631;SDS011;8934;51.194;17.150;2023-09-18T15:43:15;11.00;;;8.10;;
17631;SDS011;8934;51.194;17.150;2023-09-18T15:46:04;11.48;;;8.02;;
17631;SDS011;8934;51.194;17.150;2023-09-18T15:48:54;12.63;;;8.10;;
17631;SDS011;8934;51.194;17.150;2023-09-18T15:51:42;8.80;;;7.75;;
17631;SDS011;8934;51.194;17.150;2023-09-18T15:54:30;9.48;;;8.40;;
17631;SDS011;8934;51.194;17.150;2023-09-18T15:57:18;11.13;;;8.02;;
17631;SDS011;8934;51.194;17.150;2023-09-18T16:00:07;13.48;;;8.80;;
17631;SDS011;8934;51.194;17.150;2023-09-18T16:02:57;15.38;;;9.00;;
17631;SDS011;8934;51.194;17.150;2023-09-18T16:05:47;11.27;;;8.95;;
17631;SDS011;8934;51.194;17.150;2023-09-18T16:08:38;10.75;;;9.07;;
17631;SDS011;8934;51.194;17.150;2023-09-18T16:11:25;12.18;;;9.55;;
17631;SDS011;8934;51.194;17.150;2023-09-18T16:14:13;10.32;;;8.90;;
17631;SDS011;8934;51.194;17.150;2023-09-18T16:17:07;10.45;;;9.18;;
17631;SDS011;8934;51.194;17.150;2023-09-18T16:19:55;11.38;;;10.18;;
17631;SDS011;8934;51.194;17.150;2023-09-18T16:22:45;14.82;;;10.20;;
17631;SDS011;8934;51.194;17.150;2023-09-18T16:25:32;14.20;;;10.80;;
17631;SDS011;8934;51.194;17.150;2023-09-18T16:28:20;11.45;;;10.02;;
17631;SDS011;8934;51.194;17.150;2023-09-18T16:31:08;12.07;;;10.85;;
17631;SDS011;8934;51.194;17.150;2023-09-18T16:33:55;13.75;;;11.50;;
17631;SDS011;8934;51.194;17.150;2023-09-18T16:36:44;13.18;;;11.10;;